sensor_id;sensor_type;location;lat;lon;timestamp;P1;durP1;ratioP1;P2;durP2;ratioP2
15169;SDS011;7685;47.406;8.540;2022-07-23T04:37:03;12.90;;;11.73;;
15169;SDS011;7685;47.406;8.540;2022-07-23T04:39:28;13.32;;;12.00;;
15169;SDS011;7685;47.406;8.540;2022-07-23T04:41:54;14.70;;;13.15;;
15169;SDS011;7685;47.406;8.540;2022-07-23T04:44:19;14.13;;;12.93;;
15169;SDS011;7685;47.406;8.540;2022-07-23T04:46:44;13.50;;;12.30;;
15169;SDS011;7685;47.406;8.540;2022-07-23T04:49:09;12.43;;;11.40;;
15169;SDS011;7685;47.406;8.540;2022-07-23T04:51:35;13.63;;;12.40;;
15169;SDS011;7685;47.406;8.540;2022-07-23T04:54:00;13.45;;;12.32;;
15169;SDS011;7685;47.406;8.540;2022-07-23T04:56:25;14.25;;;13.00;;
15169;SDS011;7685;47.406;8.540;2022-07-23T04:58:51;11.43;;;10.32;;
15169;SDS011;7685;47.406;8.540;2022-07-23T05:01:16;14.23;;;12.88;;
15169;SDS011;7685;47.406;8.540;2022-07-23T05:03:41;13.75;;;12.65;;
15169;SDS011;7685;47.406;8.540;2022-07-23T05:06:07;13.13;;;12.02;;
15169;SDS011;7685;47.406;8.540;2022-07-23T05:08:32;14.68;;;13.30;;
15169;SDS011;7685;47.406;8.540;2022-07-23T05:10:57;14.27;;;12.90;;
15169;SDS011;7685;47.406;8.540;2022-07-23T05:13:23;14.05;;;12.63;;
15169;SDS011;7685;47.406;8.540;2022-07-23T05:15:48;13.70;;;12.40;;
15169;SDS011;7685;47.406;8.540;2022-07-23T05:18:13;13.40;;;12.10;;
15169;SDS011;7685;47.406;8.540;2022-07-23T05:20:38;13.82;;;12.52;;
15169;SDS011;7685;47.406;8.540;2022-07-23T05:23:04;14.85;;;13.40;;
15169;SDS011;7685;47.406;8.540;2022-07-23T05:25:29;14.95;;;13.48;;
15169;SDS011;7685;47.406;8.540;2022-07-23T05:27:54;17.05;;;15.45;;
15169;SDS011;7685;47.406;8.540;2022-07-23T05:30:20;16.13;;;14.45;;
15169;SDS011;7685;47.406;8.540;2022-07-23T05:32:45;16.83;;;15.10;;
15169;SDS011;7685;47.406;8.540;2022-07-23T05:35:11;15.57;;;14.15;;
15169;SDS011;7685;47.406;8.540;2022-07-23T05:37:37;15.60;;;14.32;;
15169;SDS011;7685;47.406;8.540;2022-07-23T05:40:03;17.33;;;15.55;;
15169;SDS011;7685;47.406;8.540;2022-07-23T05:42:32;17.60;;;16.13;;
15169;SDS011;7685;47.406;8.540;2022-07-23T05:44:57;14.60;;;13.40;;
15169;SDS011;7685;47.406;8.540;2022-07-23T05:47:23;14.90;;;13.63;;
15169;SDS011;7685;47.406;8.540;2022-07-23T05:49:48;16.30;;;14.88;;
15169;SDS011;7685;47.406;8.540;2022-07-23T05:52:13;18.25;;;15.50;;
15169;SDS011;7685;47.406;8.540;2022-07-23T05:54:39;15.85;;;14.35;;
15169;SDS011;7685;47.406;8.540;2022-07-23T05:57:04;16.42;;;14.82;;
15169;SDS011;7685;47.406;8.540;2022-07-23T05:59:30;15.32;;;13.98;;
15169;SDS011;7685;47.406;8.540;2022-07-23T06:01:55;15.00;;;13.75;;
15169;SDS011;7685;47.406;8.540;2022-07-23T06:04:21;14.80;;;13.48;;
15169;SDS011;7685;47.406;8.540;2022-07-23T06:06:46;15.98;;;14.48;;
15169;SDS011;7685;47.406;8.540;2022-07-23T06:09:11;16.42;;;14.93;;
15169;SDS011;7685;47.406;8.540;2022-07-23T06:11:38;14.32;;;13.02;;
15169;SDS011;7685;47.406;8.540;2022-07-23T06:14:04;15.18;;;13.88;;
15169;SDS011;7685;47.406;8.540;2022-07-23T06:16:30;14.07;;;12.85;;
15169;SDS011;7685;47.406;8.540;2022-07-23T06:18:55;15.63;;;14.18;;
15169;SDS011;7685;47.406;8.540;2022-07-23T06:21:20;15.18;;;13.88;;
15169;SDS011;7685;47.406;8.540;2022-07-23T06:23:45;14.90;;;13.70;;
15169;SDS011;7685;47.406;8.540;2022-07-23T06:26:11;14.27;;;12.98;;
15169;SDS011;7685;47.406;8.540;2022-07-23T06:28:36;17.25;;;15.52;;
15169;SDS011;7685;47.406;8.540;2022-07-23T06:31:01;17.63;;;15.75;;
15169;SDS011;7685;47.406;8.540;2022-07-23T06:33:27;17.77;;;14.88;;
15169;SDS011;7685;47.406;8.540;2022-07-23T06:35:52;17.80;;;15.93;;
15169;SDS011;7685;47.406;8.540;2022-07-23T06:38:17;13.68;;;12.30;;
15169;SDS011;7685;47.406;8.540;2022-07-23T06:40:43;15.82;;;14.43;;
15169;SDS011;7685;47.406;8.540;2022-07-23T06:43:09;15.88;;;14.27;;
15169;SDS011;7685;47.406;8.540;2022-07-23T06:45:35;15.05;;;13.65;;
15169;SDS011;7685;47.406;8.540;2022-07-23T06:48:00;17.67;;;15.88;;
15169;SDS011;7685;47.406;8.540;2022-07-23T06:50:27;19.52;;;17.42;;
15169;SDS011;7685;47.406;8.540;2022-07-23T06:52:53;17.27;;;15.57;;
15169;SDS011;7685;47.406;8.540;2022-07-23T06:55:18;17.08;;;13.95;;
15169;SDS011;7685;47.406;8.540;2022-07-23T06:57:43;13.90;;;12.43;;
15169;SDS011;7685;47.406;8.540;2022-07-23T07:00:09;15.25;;;13.50;;
15169;SDS011;7685;47.406;8.540;2022-07-23T07:02:34;16.20;;;14.50;;
15169;SDS011;7685;47.406;8.540;2022-07-23T07:05:00;18.20;;;16.17;;
15169;SDS011;7685;47.406;8.540;2022-07-23T07:07:25;17.67;;;15.70;;
15169;SDS011;7685;47.406;8.540;2022-07-23T07:09:51;16.88;;;15.18;;
15169;SDS011;7685;47.406;8.540;2022-07-23T07:12:16;17.27;;;15.43;;
15169;SDS011;7685;47.406;8.540;2022-07-23T07:14:41;15.85;;;14.35;;
15169;SDS011;7685;47.406;8.540;2022-07-23T07:17:06;15.40;;;13.57;;
15169;SDS011;7685;47.406;8.540;2022-07-23T07:19:32;17.20;;;15.63;;
15169;SDS011;7685;47.406;8.540;2022-07-23T07:21:57;15.73;;;14.23;;
15169;SDS011;7685;47.406;8.540;2022-07-23T07:24:22;16.08;;;14.57;;
15169;SDS011;7685;47.406;8.540;2022-07-23T07:26:48;17.88;;;16.17;;
15169;SDS011;7685;47.406;8.540;2022-07-23T07:29:13;17.50;;;15.90;;
15169;SDS011;7685;47.406;8.540;2022-07-23T07:31:38;20.27;;;18.17;;
15169;SDS011;7685;47.406;8.540;2022-07-23T07:34:04;21.17;;;19.10;;
15169;SDS011;7685;47.406;8.540;2022-07-23T07:36:29;21.63;;;19.15;;
15169;SDS011;7685;47.406;8.540;2022-07-23T07:38:54;20.58;;;18.58;;
15169;SDS011;7685;47.406;8.540;2022-07-23T07:41:20;24.90;;;22.13;;
15169;SDS011;7685;47.406;8.540;2022-07-23T07:43:48;28.25;;;23.50;;
15169;SDS011;7685;47.406;8.540;2022-07-23T07:46:14;27.63;;;24.02;;
15169;SDS011;7685;47.406;8.540;2022-07-23T07:48:40;23.40;;;20.95;;
15169;SDS011;7685;47.406;8.540;2022-07-23T07:51:05;22.00;;;19.80;;
15169;SDS011;7685;47.406;8.540;2022-07-23T07:53:31;20.65;;;18.55;;
15169;SDS011;7685;47.406;8.540;2022-07-23T07:55:56;26.40;;;23.52;;
15169;SDS011;7685;47.406;8.540;2022-07-23T07:58:21;24.60;;;22.00;;
15169;SDS011;7685;47.406;8.540;2022-07-23T08:00:47;25.98;;;23.20;;
15169;SDS011;7685;47.406;8.540;2022-07-23T08:03:12;25.92;;;23.20;;
15169;SDS011;7685;47.406;8.540;2022-07-23T08:05:37;24.45;;;21.67;;
15169;SDS011;7685;47.406;8.540;2022-07-23T08:08:03;22.95;;;20.48;;
15169;SDS011;7685;47.406;8.540;2022-07-23T08:10:28;23.90;;;21.50;;
15169;SDS011;7685;47.406;8.540;2022-07-23T08:12:56;23.63;;;21.33;;
15169;SDS011;7685;47.406;8.540;2022-07-23T08:15:23;23.88;;;21.48;;
15169;SDS011;7685;47.406;8.540;2022-07-23T08:17:50;18.17;;;16.58;;
15169;SDS011;7685;47.406;8.540;2022-07-23T08:20:16;21.65;;;19.50;;
15169;SDS011;7685;47.406;8.540;2022-07-23T08:25:22;21.10;;;19.17;;
15169;SDS011;7685;47.406;8.540;2022-07-23T08:27:59;17.02;;;15.63;;
15169;SDS011;7685;47.406;8.540;2022-07-23T08:30:26;15.63;;;14.27;;
15169;SDS011;7685;47.406;8.540;2022-07-23T08:32:53;17.33;;;15.82;;
15169;SDS011;7685;47.406;8.540;2022-07-23T08:35:43;16.45;;;14.98;;
15169;SDS011;7685;47.406;8.540;2022-07-23T08:38:11;17.10;;;15.68;;
15169;SDS011;7685;47.406;8.540;2022-07-23T08:40:38;15.35;;;14.00;;
15169;SDS011;7685;47.406;8.540;2022-07-23T08:43:06;16.05;;;14.63;;
15169;SDS011;7685;47.406;8.540;2022-07-23T08:45:38;15.60;;;14.40;;
15169;SDS011;7685;47.406;8.540;2022-07-23T08:48:05;15.00;;;13.70;;
15169;SDS011;7685;47.406;8.540;2022-07-23T08:50:33;13.10;;;12.05;;
15169;SDS011;7685;47.406;8.540;2022-07-23T08:53:01;17.13;;;15.52;;
15169;SDS011;7685;47.406;8.540;2022-07-23T08:55:27;16.90;;;15.15;;
15169;SDS011;7685;47.406;8.540;2022-07-23T08:57:52;14.68;;;13.38;;
15169;SDS011;7685;47.406;8.540;2022-07-23T09:00:19;14.43;;;13.13;;
15169;SDS011;7685;47.406;8.540;2022-07-23T09:02:45;16.90;;;15.35;;
15169;SDS011;7685;47.406;8.540;2022-07-23T09:05:11;13.98;;;12.82;;
15169;SDS011;7685;47.406;8.540;2022-07-23T09:07:41;12.82;;;11.82;;
15169;SDS011;7685;47.406;8.540;2022-07-23T09:15:54;10.88;;;9.98;;
15169;SDS011;7685;47.406;8.540;2022-07-23T09:18:27;9.63;;;8.82;;
15169;SDS011;7685;47.406;8.540;2022-07-23T09:21:05;10.95;;;9.90;;
15169;SDS011;7685;47.406;8.540;2022-07-23T09:23:38;9.32;;;8.52;;
15169;SDS011;7685;47.406;8.540;2022-07-23T09:26:11;11.10;;;10.20;;
15169;SDS011;7685;47.406;8.540;2022-07-23T09:31:49;11.38;;;10.45;;
15169;SDS011;7685;47.406;8.540;2022-07-23T09:34:34;11.18;;;10.15;;
15169;SDS011;7685;47.406;8.540;2022-07-23T09:37:13;10.68;;;9.77;;
15169;SDS011;7685;47.406;8.540;2022-07-23T09:39:41;11.38;;;10.27;;
15169;SDS011;7685;47.406;8.540;2022-07-23T09:44:50;11.85;;;10.85;;
15169;SDS011;7685;47.406;8.540;2022-07-23T09:47:17;11.25;;;10.35;;
15169;SDS011;7685;47.406;8.540;2022-07-23T09:52:27;11.07;;;10.15;;
15169;SDS011;7685;47.406;8.540;2022-07-23T09:54:57;12.00;;;11.00;;
15169;SDS011;7685;47.406;8.540;2022-07-23T09:57:24;11.25;;;10.35;;
15169;SDS011;7685;47.406;8.540;2022-07-23T09:59:50;10.77;;;9.85;;
15169;SDS011;7685;47.406;8.540;2022-07-23T10:02:16;11.25;;;10.25;;
15169;SDS011;7685;47.406;8.540;2022-07-23T10:04:41;11.10;;;10.10;;
15169;SDS011;7685;47.406;8.540;2022-07-23T10:07:07;10.93;;;10.02;;
15169;SDS011;7685;47.406;8.540;2022-07-23T10:09:36;12.13;;;11.13;;
15169;SDS011;7685;47.406;8.540;2022-07-23T10:12:03;12.07;;;11.07;;
15169;SDS011;7685;47.406;8.540;2022-07-23T10:14:41;11.80;;;10.77;;
15169;SDS011;7685;47.406;8.540;2022-07-23T10:17:07;11.80;;;10.80;;
15169;SDS011;7685;47.406;8.540;2022-07-23T10:19:33;10.23;;;9.40;;
15169;SDS011;7685;47.406;8.540;2022-07-23T10:22:00;11.15;;;10.15;;
15169;SDS011;7685;47.406;8.540;2022-07-23T10:30:12;12.07;;;11.07;;
15169;SDS011;7685;47.406;8.540;2022-07-23T10:32:47;12.07;;;10.98;;
15169;SDS011;7685;47.406;8.540;2022-07-23T10:38:11;12.23;;;11.10;;
15169;SDS011;7685;47.406;8.540;2022-07-23T10:40:51;13.02;;;11.90;;
15169;SDS011;7685;47.406;8.540;2022-07-23T10:43:19;12.95;;;11.80;;
15169;SDS011;7685;47.406;8.540;2022-07-23T10:45:45;13.27;;;12.07;;
15169;SDS011;7685;47.406;8.540;2022-07-23T10:48:20;13.35;;;12.20;;
15169;SDS011;7685;47.406;8.540;2022-07-23T10:53:57;12.55;;;11.45;;
15169;SDS011;7685;47.406;8.540;2022-07-23T10:59:16;11.40;;;10.40;;
15169;SDS011;7685;47.406;8.540;2022-07-23T11:01:41;12.20;;;11.10;;
15169;SDS011;7685;47.406;8.540;2022-07-23T11:04:07;12.70;;;11.65;;
15169;SDS011;7685;47.406;8.540;2022-07-23T11:12:31;11.95;;;10.88;;
15169;SDS011;7685;47.406;8.540;2022-07-23T11:15:06;11.85;;;10.90;;
15169;SDS011;7685;47.406;8.540;2022-07-23T11:25:08;12.30;;;11.38;;
15169;SDS011;7685;47.406;8.540;2022-07-23T11:27:41;12.13;;;11.18;;
15169;SDS011;7685;47.406;8.540;2022-07-23T11:30:08;11.00;;;9.88;;
15169;SDS011;7685;47.406;8.540;2022-07-23T11:33:15;12.07;;;10.88;;
15169;SDS011;7685;47.406;8.540;2022-07-23T11:35:41;10.82;;;9.82;;
15169;SDS011;7685;47.406;8.540;2022-07-23T11:38:18;10.57;;;9.68;;
15169;SDS011;7685;47.406;8.540;2022-07-23T11:40:46;10.27;;;9.32;;
15169;SDS011;7685;47.406;8.540;2022-07-23T11:43:12;9.90;;;9.20;;
15169;SDS011;7685;47.406;8.540;2022-07-23T11:45:58;10.65;;;9.65;;
15169;SDS011;7685;47.406;8.540;2022-07-23T11:48:25;9.70;;;8.90;;
15169;SDS011;7685;47.406;8.540;2022-07-23T11:50:52;10.10;;;9.25;;
15169;SDS011;7685;47.406;8.540;2022-07-23T11:53:24;9.68;;;8.85;;
15169;SDS011;7685;47.406;8.540;2022-07-23T11:55:53;10.13;;;9.32;;
15169;SDS011;7685;47.406;8.540;2022-07-23T11:58:20;9.93;;;9.13;;
15169;SDS011;7685;47.406;8.540;2022-07-23T12:00:45;10.15;;;9.25;;
15169;SDS011;7685;47.406;8.540;2022-07-23T12:03:11;10.50;;;9.65;;
15169;SDS011;7685;47.406;8.540;2022-07-23T12:05:36;9.23;;;8.43;;
15169;SDS011;7685;47.406;8.540;2022-07-23T12:08:03;10.02;;;9.13;;
15169;SDS011;7685;47.406;8.540;2022-07-23T12:13:03;10.15;;;9.25;;
15169;SDS011;7685;47.406;8.540;2022-07-23T12:15:36;10.57;;;9.68;;
15169;SDS011;7685;47.406;8.540;2022-07-23T12:18:04;9.98;;;9.02;;
15169;SDS011;7685;47.406;8.540;2022-07-23T12:20:31;10.13;;;9.25;;
15169;SDS011;7685;47.406;8.540;2022-07-23T12:23:08;10.15;;;9.35;;
15169;SDS011;7685;47.406;8.540;2022-07-23T12:25:36;9.30;;;8.60;;
15169;SDS011;7685;47.406;8.540;2022-07-23T12:28:06;9.70;;;8.95;;
15169;SDS011;7685;47.406;8.540;2022-07-23T12:30:37;9.48;;;8.60;;
15169;SDS011;7685;47.406;8.540;2022-07-23T12:35:50;10.35;;;9.45;;
15169;SDS011;7685;47.406;8.540;2022-07-23T12:38:18;10.35;;;9.38;;
15169;SDS011;7685;47.406;8.540;2022-07-23T12:40:45;9.27;;;8.52;;
15169;SDS011;7685;47.406;8.540;2022-07-23T12:46:17;9.43;;;8.48;;
15169;SDS011;7685;47.406;8.540;2022-07-23T12:56:28;9.65;;;8.88;;
15169;SDS011;7685;47.406;8.540;2022-07-23T12:58:59;9.70;;;8.88;;
15169;SDS011;7685;47.406;8.540;2022-07-23T13:01:32;9.93;;;9.13;;
15169;SDS011;7685;47.406;8.540;2022-07-23T13:06:24;9.98;;;9.27;;
15169;SDS011;7685;47.406;8.540;2022-07-23T13:08:50;9.57;;;8.88;;
15169;SDS011;7685;47.406;8.540;2022-07-23T13:11:15;9.10;;;8.40;;
15169;SDS011;7685;47.406;8.540;2022-07-23T13:13:40;9.90;;;9.10;;
15169;SDS011;7685;47.406;8.540;2022-07-23T13:16:06;9.07;;;8.35;;
15169;SDS011;7685;47.406;8.540;2022-07-23T13:18:31;9.85;;;9.05;;
15169;SDS011;7685;47.406;8.540;2022-07-23T13:20:57;10.68;;;9.77;;
15169;SDS011;7685;47.406;8.540;2022-07-23T13:23:22;10.20;;;9.40;;
15169;SDS011;7685;47.406;8.540;2022-07-23T13:25:48;10.30;;;9.50;;
15169;SDS011;7685;47.406;8.540;2022-07-23T13:28:14;10.77;;;9.88;;
15169;SDS011;7685;47.406;8.540;2022-07-23T13:30:40;10.45;;;9.52;;
15169;SDS011;7685;47.406;8.540;2022-07-23T13:33:06;9.25;;;8.38;;
15169;SDS011;7685;47.406;8.540;2022-07-23T13:35:31;10.20;;;9.40;;
15169;SDS011;7685;47.406;8.540;2022-07-23T13:37:58;10.73;;;9.88;;
15169;SDS011;7685;47.406;8.540;2022-07-23T13:40:23;10.35;;;9.45;;
15169;SDS011;7685;47.406;8.540;2022-07-23T13:42:48;10.05;;;9.25;;
15169;SDS011;7685;47.406;8.540;2022-07-23T13:45:14;10.98;;;10.18;;
15169;SDS011;7685;47.406;8.540;2022-07-23T13:47:39;10.82;;;10.02;;
15169;SDS011;7685;47.406;8.540;2022-07-23T13:50:04;9.88;;;9.07;;
15169;SDS011;7685;47.406;8.540;2022-07-23T13:52:30;10.23;;;9.43;;
15169;SDS011;7685;47.406;8.540;2022-07-23T13:54:58;10.00;;;9.20;;
15169;SDS011;7685;47.406;8.540;2022-07-23T13:57:24;10.00;;;9.20;;
15169;SDS011;7685;47.406;8.540;2022-07-23T13:59:49;10.50;;;9.70;;
15169;SDS011;7685;47.406;8.540;2022-07-23T14:02:15;10.57;;;9.77;;
15169;SDS011;7685;47.406;8.540;2022-07-23T14:04:42;10.52;;;9.60;;
15169;SDS011;7685;47.406;8.540;2022-07-23T14:07:07;9.55;;;8.75;;
15169;SDS011;7685;47.406;8.540;2022-07-23T14:09:33;9.40;;;8.70;;
15169;SDS011;7685;47.406;8.540;2022-07-23T14:11:59;9.70;;;8.90;;
15169;SDS011;7685;47.406;8.540;2022-07-23T14:14:24;10.40;;;9.65;;
15169;SDS011;7685;47.406;8.540;2022-07-23T14:16:50;9.93;;;9.23;;
15169;SDS011;7685;47.406;8.540;2022-07-23T14:19:15;10.00;;;9.30;;
15169;SDS011;7685;47.406;8.540;2022-07-23T14:21:41;10.45;;;9.50;;
15169;SDS011;7685;47.406;8.540;2022-07-23T14:24:06;9.75;;;9.00;;
15169;SDS011;7685;47.406;8.540;2022-07-23T14:26:32;10.68;;;9.77;;
15169;SDS011;7685;47.406;8.540;2022-07-23T14:28:57;9.88;;;8.98;;
15169;SDS011;7685;47.406;8.540;2022-07-23T14:31:22;10.02;;;9.23;;
15169;SDS011;7685;47.406;8.540;2022-07-23T14:33:48;9.15;;;8.48;;
15169;SDS011;7685;47.406;8.540;2022-07-23T14:36:13;10.27;;;9.38;;
15169;SDS011;7685;47.406;8.540;2022-07-23T14:38:39;17.55;;;9.82;;
15169;SDS011;7685;47.406;8.540;2022-07-23T14:41:04;8.77;;;8.07;;
15169;SDS011;7685;47.406;8.540;2022-07-23T14:43:31;9.82;;;9.02;;
15169;SDS011;7685;47.406;8.540;2022-07-23T14:45:57;9.82;;;7.75;;
15169;SDS011;7685;47.406;8.540;2022-07-23T14:48:22;8.30;;;7.38;;
15169;SDS011;7685;47.406;8.540;2022-07-23T14:50:48;8.48;;;6.68;;
15169;SDS011;7685;47.406;8.540;2022-07-23T14:53:16;5.93;;;5.32;;
15169;SDS011;7685;47.406;8.540;2022-07-23T14:55:41;3.90;;;3.40;;
15169;SDS011;7685;47.406;8.540;2022-07-23T14:58:06;13.73;;;3.60;;
15169;SDS011;7685;47.406;8.540;2022-07-23T15:00:32;3.40;;;2.80;;
15169;SDS011;7685;47.406;8.540;2022-07-23T15:02:57;2.85;;;2.20;;
15169;SDS011;7685;47.406;8.540;2022-07-23T15:05:23;1.95;;;1.20;;
15169;SDS011;7685;47.406;8.540;2022-07-23T15:07:48;1.10;;;1.10;;
15169;SDS011;7685;47.406;8.540;2022-07-23T15:10:14;1.13;;;1.13;;
15169;SDS011;7685;47.406;8.540;2022-07-23T15:12:39;1.33;;;1.23;;
15169;SDS011;7685;47.406;8.540;2022-07-23T15:15:05;0.90;;;0.90;;
15169;SDS011;7685;47.406;8.540;2022-07-23T15:17:31;3.50;;;1.10;;
15169;SDS011;7685;47.406;8.540;2022-07-23T15:19:57;0.45;;;0.45;;
15169;SDS011;7685;47.406;8.540;2022-07-23T15:22:22;0.70;;;0.70;;
15169;SDS011;7685;47.406;8.540;2022-07-23T15:24:48;0.73;;;0.73;;
15169;SDS011;7685;47.406;8.540;2022-07-23T15:27:13;0.82;;;0.82;;
15169;SDS011;7685;47.406;8.540;2022-07-23T15:29:39;0.45;;;0.45;;
15169;SDS011;7685;47.406;8.540;2022-07-23T15:32:04;0.50;;;0.50;;
15169;SDS011;7685;47.406;8.540;2022-07-23T15:34:29;0.73;;;0.73;;
15169;SDS011;7685;47.406;8.540;2022-07-23T15:36:56;0.60;;;0.60;;
15169;SDS011;7685;47.406;8.540;2022-07-23T15:39:24;0.50;;;0.50;;
15169;SDS011;7685;47.406;8.540;2022-07-23T15:41:49;0.75;;;0.75;;
15169;SDS011;7685;47.406;8.540;2022-07-23T15:44:14;1.08;;;0.98;;
15169;SDS011;7685;47.406;8.540;2022-07-23T15:46:40;1.02;;;1.02;;
15169;SDS011;7685;47.406;8.540;2022-07-23T15:49:05;1.00;;;1.00;;
15169;SDS011;7685;47.406;8.540;2022-07-23T15:51:30;1.65;;;1.55;;
15169;SDS011;7685;47.406;8.540;2022-07-23T15:53:56;1.00;;;0.73;;
15169;SDS011;7685;47.406;8.540;2022-07-23T15:56:21;1.25;;;1.15;;
15169;SDS011;7685;47.406;8.540;2022-07-23T15:58:46;0.68;;;0.68;;
15169;SDS011;7685;47.406;8.540;2022-07-23T16:01:13;1.98;;;1.20;;
15169;SDS011;7685;47.406;8.540;2022-07-23T16:03:38;0.50;;;0.50;;
15169;SDS011;7685;47.406;8.540;2022-07-23T16:06:04;2.28;;;1.45;;
15169;SDS011;7685;47.406;8.540;2022-07-23T16:08:30;1.42;;;1.33;;
15169;SDS011;7685;47.406;8.540;2022-07-23T16:10:56;0.90;;;0.90;;
15169;SDS011;7685;47.406;8.540;2022-07-23T16:13:24;0.50;;;0.50;;
15169;SDS011;7685;47.406;8.540;2022-07-23T16:15:50;0.68;;;0.68;;
15169;SDS011;7685;47.406;8.540;2022-07-23T16:18:15;0.90;;;0.90;;
15169;SDS011;7685;47.406;8.540;2022-07-23T16:20:41;0.70;;;0.70;;
15169;SDS011;7685;47.406;8.540;2022-07-23T16:23:07;1.13;;;1.05;;
15169;SDS011;7685;47.406;8.540;2022-07-23T16:25:32;0.50;;;0.50;;
15169;SDS011;7685;47.406;8.540;2022-07-23T16:27:58;0.70;;;0.70;;
15169;SDS011;7685;47.406;8.540;2022-07-23T16:30:24;0.63;;;0.63;;
15169;SDS011;7685;47.406;8.540;2022-07-23T16:32:49;0.75;;;0.75;;
15169;SDS011;7685;47.406;8.540;2022-07-23T16:35:14;0.65;;;0.65;;
15169;SDS011;7685;47.406;8.540;2022-07-23T16:37:40;0.80;;;0.65;;
15169;SDS011;7685;47.406;8.540;2022-07-23T16:40:06;0.80;;;0.80;;
15169;SDS011;7685;47.406;8.540;2022-07-23T16:42:33;1.00;;;1.00;;
15169;SDS011;7685;47.406;8.540;2022-07-23T16:44:59;0.50;;;0.50;;
